Airfield :







YOU CAN JOIN US ON...

 
LOGIN :

Register | Disclaimer

   EN    FR    IT 

 









Legend :    VFR   Marginal VFR   IFR   Intensive IFR   Very Intensive IFR
Visi :
Ceiling :
>= 8 km
>= 3000ft
5 to 8 km
1000 to 3000 ft
1500m to 5 km
500 to 1000 ft
800 to 1500m
200 to 500 ft
< 800m
< 200 ft
Symbols :   Thunderstorms  Fog  Heavy snow  Heavy precipitations  Wind > 20 kt






- Airport Elevation : 234 ft
- IATA code : YMN


CYFT - Makkovik

CURRENT METAR :
  • 072000Z 31028G35KT 3/4SM -SN OVC004 M05/M06 A2944 RMK ST8 /S01/ LAST STFD OBS/NEXT080900Z SLP976

EXPIRED METARs :
  • 071900Z 30026G34KT 3/4SM -SN OVC004 M05/M06 A2946 RMK ST8 SLP982
  • 071800Z 30025G34KT 3/4SM -SN OVC004 M06/M07 A2947 RMK ST8 SLP987

TAF N/A



MET'MAP, your aeronautical weather chart ! - Copyright ORBIFLY December 2007 - Disclaimer

ORBIFLY MET'MAP TEAM :

Programming & Development : Alexandra Zaïnal
Concept & original design : Baudouin d'Aumeries
Assistance for programming : Marc-Olivier Méhu
Technical & hardware support : Manuel Goepfert

Contact : metmap@orbifly.com




SOURCES & CREDITS :

   NOAA